sensor_id;sensor_type;location;lat;lon;timestamp;pressure;altitude;pressure_sealevel;temperature;humidity
81162;BME280;70638;-33.792;151.032;2023-06-14T00:01:54;100699.86;;;13.39;61.95
81162;BME280;70638;-33.792;151.032;2023-06-14T00:04:24;100703.35;;;13.42;61.81
81162;BME280;70638;-33.792;151.032;2023-06-14T00:06:54;100702.17;;;13.44;61.85
81162;BME280;70638;-33.792;151.032;2023-06-14T00:09:25;100698.52;;;13.48;61.63
81162;BME280;70638;-33.792;151.032;2023-06-14T00:11:55;100697.45;;;13.50;61.59
81162;BME280;70638;-33.792;151.032;2023-06-14T00:14:26;100695.26;;;13.51;61.65
81162;BME280;70638;-33.792;151.032;2023-06-14T00:16:56;100691.74;;;13.53;61.61
81162;BME280;70638;-33.792;151.032;2023-06-14T00:19:27;100695.16;;;13.56;61.36
81162;BME280;70638;-33.792;151.032;2023-06-14T00:21:57;100698.03;;;13.58;61.47
81162;BME280;70638;-33.792;151.032;2023-06-14T00:24:27;100699.78;;;13.61;61.40
81162;BME280;70638;-33.792;151.032;2023-06-14T00:26:58;100694.12;;;13.63;61.10
81162;BME280;70638;-33.792;151.032;2023-06-14T00:29:28;100689.17;;;13.65;61.02
81162;BME280;70638;-33.792;151.032;2023-06-14T00:31:58;100690.22;;;13.67;60.79
81162;BME280;70638;-33.792;151.032;2023-06-14T00:34:29;100693.38;;;13.70;60.87
81162;BME280;70638;-33.792;151.032;2023-06-14T00:36:59;100688.42;;;13.72;60.19
81162;BME280;70638;-33.792;151.032;2023-06-14T00:39:29;100691.12;;;13.72;60.44
81162;BME280;70638;-33.792;151.032;2023-06-14T00:41:59;100685.23;;;13.75;59.60
81162;BME280;70638;-33.792;151.032;2023-06-14T00:44:30;100681.02;;;13.76;60.16
81162;BME280;70638;-33.792;151.032;2023-06-14T00:47:00;100676.81;;;13.77;59.19
81162;BME280;70638;-33.792;151.032;2023-06-14T00:49:30;100670.67;;;13.81;60.00
81162;BME280;70638;-33.792;151.032;2023-06-14T00:52:01;100664.84;;;13.82;60.36
81162;BME280;70638;-33.792;151.032;2023-06-14T00:54:31;100660.22;;;13.84;60.04
81162;BME280;70638;-33.792;151.032;2023-06-14T00:57:02;100657.46;;;13.86;60.08
81162;BME280;70638;-33.792;151.032;2023-06-14T00:59:33;100651.41;;;13.87;60.24
81162;BME280;70638;-33.792;151.032;2023-06-14T01:02:03;100646.25;;;13.88;59.49
81162;BME280;70638;-33.792;151.032;2023-06-14T01:04:34;100636.95;;;13.90;59.41
81162;BME280;70638;-33.792;151.032;2023-06-14T01:09:45;100623.05;;;13.95;59.69
81162;BME280;70638;-33.792;151.032;2023-06-14T01:12:23;100618.01;;;13.97;59.91
81162;BME280;70638;-33.792;151.032;2023-06-14T01:14:36;100628.15;;;13.97;59.97
81162;BME280;70638;-33.792;151.032;2023-06-14T01:17:08;100635.88;;;13.99;59.47
81162;BME280;70638;-33.792;151.032;2023-06-14T01:19:37;100631.13;;;14.00;58.89
81162;BME280;70638;-33.792;151.032;2023-06-14T01:22:08;100637.16;;;14.02;59.32
81162;BME280;70638;-33.792;151.032;2023-06-14T01:24:38;100635.41;;;14.05;59.67
81162;BME280;70638;-33.792;151.032;2023-06-14T01:27:09;100633.80;;;14.05;59.23
81162;BME280;70638;-33.792;151.032;2023-06-14T01:29:40;100631.12;;;14.07;59.64
81162;BME280;70638;-33.792;151.032;2023-06-14T01:32:10;100624.38;;;14.10;59.62
81162;BME280;70638;-33.792;151.032;2023-06-14T01:34:40;100618.72;;;14.11;59.65
81162;BME280;70638;-33.792;151.032;2023-06-14T01:37:11;100624.23;;;14.13;59.78
81162;BME280;70638;-33.792;151.032;2023-06-14T01:39:43;100620.77;;;14.14;59.74
81162;BME280;70638;-33.792;151.032;2023-06-14T01:42:13;100618.94;;;14.15;59.78
81162;BME280;70638;-33.792;151.032;2023-06-14T01:44:43;100610.64;;;14.16;59.52
81162;BME280;70638;-33.792;151.032;2023-06-14T01:47:13;100603.73;;;14.19;59.57
81162;BME280;70638;-33.792;151.032;2023-06-14T01:49:43;100603.25;;;14.21;59.17
81162;BME280;70638;-33.792;151.032;2023-06-14T01:52:14;100594.45;;;14.21;58.61
81162;BME280;70638;-33.792;151.032;2023-06-14T01:54:44;100586.45;;;14.23;58.52
81162;BME280;70638;-33.792;151.032;2023-06-14T01:57:14;100587.03;;;14.24;58.75
81162;BME280;70638;-33.792;151.032;2023-06-14T01:59:45;100580.27;;;14.24;58.65
81162;BME280;70638;-33.792;151.032;2023-06-14T02:02:15;100580.20;;;14.25;58.11
81162;BME280;70638;-33.792;151.032;2023-06-14T02:04:46;100567.62;;;14.28;57.91
81162;BME280;70638;-33.792;151.032;2023-06-14T02:07:16;100561.61;;;14.30;58.10
81162;BME280;70638;-33.792;151.032;2023-06-14T02:09:46;100551.12;;;14.29;57.20
81162;BME280;70638;-33.792;151.032;2023-06-14T02:12:17;100557.25;;;14.33;57.94
81162;BME280;70638;-33.792;151.032;2023-06-14T02:14:47;100549.30;;;14.34;58.01
81162;BME280;70638;-33.792;151.032;2023-06-14T02:17:18;100553.30;;;14.36;57.61
81162;BME280;70638;-33.792;151.032;2023-06-14T02:19:49;100555.66;;;14.38;57.88
81162;BME280;70638;-33.792;151.032;2023-06-14T02:22:18;100551.45;;;14.38;58.14
81162;BME280;70638;-33.792;151.032;2023-06-14T02:24:49;100546.52;;;14.38;57.38
81162;BME280;70638;-33.792;151.032;2023-06-14T02:27:19;100546.81;;;14.42;58.16
81162;BME280;70638;-33.792;151.032;2023-06-14T02:29:49;100550.47;;;14.45;58.05
81162;BME280;70638;-33.792;151.032;2023-06-14T02:32:20;100544.46;;;14.46;58.06
81162;BME280;70638;-33.792;151.032;2023-06-14T02:34:50;100544.31;;;14.47;57.81
81162;BME280;70638;-33.792;151.032;2023-06-14T02:37:20;100545.75;;;14.48;57.50
81162;BME280;70638;-33.792;151.032;2023-06-14T02:39:51;100551.25;;;14.47;57.00
81162;BME280;70638;-33.792;151.032;2023-06-14T02:42:21;100547.29;;;14.50;56.74
81162;BME280;70638;-33.792;151.032;2023-06-14T02:44:51;100550.67;;;14.50;56.97
81162;BME280;70638;-33.792;151.032;2023-06-14T02:47:22;100543.70;;;14.53;57.21
81162;BME280;70638;-33.792;151.032;2023-06-14T02:49:52;100544.62;;;14.53;55.92
81162;BME280;70638;-33.792;151.032;2023-06-14T02:52:23;100539.23;;;14.56;57.17
81162;BME280;70638;-33.792;151.032;2023-06-14T02:54:53;100538.57;;;14.58;56.73
81162;BME280;70638;-33.792;151.032;2023-06-14T02:57:24;100540.70;;;14.60;56.65
81162;BME280;70638;-33.792;151.032;2023-06-14T02:59:54;100536.55;;;14.61;56.38
81162;BME280;70638;-33.792;151.032;2023-06-14T03:02:24;100527.68;;;14.64;56.20
81162;BME280;70638;-33.792;151.032;2023-06-14T03:04:55;100525.24;;;14.66;56.45
81162;BME280;70638;-33.792;151.032;2023-06-14T03:07:25;100525.52;;;14.71;56.85
81162;BME280;70638;-33.792;151.032;2023-06-14T03:09:55;100518.66;;;14.73;56.93
81162;BME280;70638;-33.792;151.032;2023-06-14T03:12:26;100521.38;;;14.75;57.07
81162;BME280;70638;-33.792;151.032;2023-06-14T03:14:56;100520.12;;;14.77;56.81
81162;BME280;70638;-33.792;151.032;2023-06-14T03:17:26;100520.39;;;14.80;56.61
81162;BME280;70638;-33.792;151.032;2023-06-14T03:19:57;100513.55;;;14.83;57.09
81162;BME280;70638;-33.792;151.032;2023-06-14T03:22:27;100511.09;;;14.83;57.15
81162;BME280;70638;-33.792;151.032;2023-06-14T03:24:57;100519.66;;;14.85;57.20
81162;BME280;70638;-33.792;151.032;2023-06-14T03:27:28;100513.89;;;14.86;56.81
81162;BME280;70638;-33.792;151.032;2023-06-14T03:29:58;100514.08;;;14.88;57.09
81162;BME280;70638;-33.792;151.032;2023-06-14T03:32:28;100517.03;;;14.88;55.46
81162;BME280;70638;-33.792;151.032;2023-06-14T03:34:59;100519.51;;;14.90;55.34
81162;BME280;70638;-33.792;151.032;2023-06-14T03:37:29;100515.09;;;14.91;54.68
81162;BME280;70638;-33.792;151.032;2023-06-14T03:40:00;100511.23;;;14.95;55.15
81162;BME280;70638;-33.792;151.032;2023-06-14T03:42:30;100512.06;;;14.93;54.48
81162;BME280;70638;-33.792;151.032;2023-06-14T03:45:00;100510.98;;;14.98;55.10
81162;BME280;70638;-33.792;151.032;2023-06-14T03:47:31;100508.27;;;14.99;54.89
81162;BME280;70638;-33.792;151.032;2023-06-14T03:50:01;100509.14;;;15.00;54.90
81162;BME280;70638;-33.792;151.032;2023-06-14T03:52:32;100516.16;;;15.04;55.28
81162;BME280;70638;-33.792;151.032;2023-06-14T03:55:02;100515.66;;;15.04;55.32
81162;BME280;70638;-33.792;151.032;2023-06-14T03:57:32;100515.34;;;15.05;55.55
81162;BME280;70638;-33.792;151.032;2023-06-14T04:00:03;100525.09;;;15.10;55.72
81162;BME280;70638;-33.792;151.032;2023-06-14T04:02:43;100528.48;;;15.10;54.74
81162;BME280;70638;-33.792;151.032;2023-06-14T04:05:04;100527.38;;;15.12;55.20
81162;BME280;70638;-33.792;151.032;2023-06-14T04:07:34;100521.05;;;15.16;54.85
81162;BME280;70638;-33.792;151.032;2023-06-14T04:10:05;100536.80;;;15.19;55.02
81162;BME280;70638;-33.792;151.032;2023-06-14T04:12:34;100542.64;;;15.20;53.92
81162;BME280;70638;-33.792;151.032;2023-06-14T04:15:05;100549.52;;;15.19;53.02
81162;BME280;70638;-33.792;151.032;2023-06-14T04:17:36;100556.27;;;15.21;53.28
81162;BME280;70638;-33.792;151.032;2023-06-14T04:20:06;100557.81;;;15.23;53.80
81162;BME280;70638;-33.792;151.032;2023-06-14T04:22:36;100562.05;;;15.22;51.74
81162;BME280;70638;-33.792;151.032;2023-06-14T04:25:06;100565.14;;;15.29;53.56
81162;BME280;70638;-33.792;151.032;2023-06-14T04:27:37;100571.39;;;15.28;52.87
81162;BME280;70638;-33.792;151.032;2023-06-14T04:30:07;100563.02;;;15.33;53.31
81162;BME280;70638;-33.792;151.032;2023-06-14T04:32:38;100565.22;;;15.33;53.15
81162;BME280;70638;-33.792;151.032;2023-06-14T04:35:09;100572.83;;;15.31;52.71
81162;BME280;70638;-33.792;151.032;2023-06-14T04:37:49;100572.42;;;15.33;52.80
81162;BME280;70638;-33.792;151.032;2023-06-14T04:40:10;100580.55;;;15.33;53.32
81162;BME280;70638;-33.792;151.032;2023-06-14T04:42:39;100581.98;;;15.31;52.00
81162;BME280;70638;-33.792;151.032;2023-06-14T04:45:10;100582.84;;;15.33;52.75
81162;BME280;70638;-33.792;151.032;2023-06-14T04:47:40;100580.38;;;15.33;53.42
81162;BME280;70638;-33.792;151.032;2023-06-14T04:50:10;100584.45;;;15.33;52.61
81162;BME280;70638;-33.792;151.032;2023-06-14T04:52:41;100586.67;;;15.35;53.01
81162;BME280;70638;-33.792;151.032;2023-06-14T04:55:11;100586.30;;;15.34;52.52
81162;BME280;70638;-33.792;151.032;2023-06-14T04:57:42;100582.91;;;15.27;50.99
81162;BME280;70638;-33.792;151.032;2023-06-14T05:00:12;100588.77;;;15.30;51.30
81162;BME280;70638;-33.792;151.032;2023-06-14T05:02:43;100584.88;;;15.30;51.62
81162;BME280;70638;-33.792;151.032;2023-06-14T05:05:13;100587.74;;;15.27;51.74
81162;BME280;70638;-33.792;151.032;2023-06-14T05:07:43;100585.27;;;15.26;49.90
81162;BME280;70638;-33.792;151.032;2023-06-14T05:10:14;100586.81;;;15.27;50.63
81162;BME280;70638;-33.792;151.032;2023-06-14T05:12:51;100585.03;;;15.30;51.91
81162;BME280;70638;-33.792;151.032;2023-06-14T05:15:15;100593.32;;;15.25;51.31
81162;BME280;70638;-33.792;151.032;2023-06-14T05:17:46;100599.24;;;15.26;50.15
81162;BME280;70638;-33.792;151.032;2023-06-14T05:20:16;100608.48;;;15.25;50.79
81162;BME280;70638;-33.792;151.032;2023-06-14T05:22:46;100602.56;;;15.27;51.78
81162;BME280;70638;-33.792;151.032;2023-06-14T05:25:16;100605.78;;;15.27;52.36
81162;BME280;70638;-33.792;151.032;2023-06-14T05:27:47;100608.33;;;15.27;51.54
81162;BME280;70638;-33.792;151.032;2023-06-14T05:30:17;100608.73;;;15.25;51.63
81162;BME280;70638;-33.792;151.032;2023-06-14T05:32:47;100614.44;;;15.26;52.29
81162;BME280;70638;-33.792;151.032;2023-06-14T05:35:18;100615.00;;;15.26;52.52
81162;BME280;70638;-33.792;151.032;2023-06-14T05:37:48;100624.67;;;15.24;52.15
81162;BME280;70638;-33.792;151.032;2023-06-14T05:40:18;100632.34;;;15.20;49.63
81162;BME280;70638;-33.792;151.032;2023-06-14T05:42:48;100633.64;;;15.21;51.18
81162;BME280;70638;-33.792;151.032;2023-06-14T05:45:19;100631.17;;;15.22;52.11
81162;BME280;70638;-33.792;151.032;2023-06-14T05:47:55;100640.55;;;15.20;52.22
81162;BME280;70638;-33.792;151.032;2023-06-14T05:50:20;100644.96;;;15.20;52.65
81162;BME280;70638;-33.792;151.032;2023-06-14T05:52:50;100637.77;;;15.21;52.61
81162;BME280;70638;-33.792;151.032;2023-06-14T05:55:21;100644.71;;;15.20;52.08
81162;BME280;70638;-33.792;151.032;2023-06-14T05:57:51;100645.20;;;15.18;51.84
81162;BME280;70638;-33.792;151.032;2023-06-14T06:00:21;100651.23;;;15.19;52.49
81162;BME280;70638;-33.792;151.032;2023-06-14T06:02:52;100654.02;;;15.16;52.26
81162;BME280;70638;-33.792;151.032;2023-06-14T06:05:22;100654.52;;;15.17;51.07
81162;BME280;70638;-33.792;151.032;2023-06-14T06:07:52;100659.01;;;15.18;52.16
81162;BME280;70638;-33.792;151.032;2023-06-14T06:10:23;100661.06;;;15.19;52.51
81162;BME280;70638;-33.792;151.032;2023-06-14T06:12:54;100665.37;;;15.17;52.58
81162;BME280;70638;-33.792;151.032;2023-06-14T06:15:24;100663.23;;;15.14;51.72
81162;BME280;70638;-33.792;151.032;2023-06-14T06:17:55;100666.56;;;15.16;52.30
81162;BME280;70638;-33.792;151.032;2023-06-14T06:20:31;100675.12;;;15.16;52.49
81162;BME280;70638;-33.792;151.032;2023-06-14T06:22:56;100672.21;;;15.15;52.81
81162;BME280;70638;-33.792;151.032;2023-06-14T06:25:27;100674.78;;;15.16;52.75
81162;BME280;70638;-33.792;151.032;2023-06-14T06:27:57;100681.95;;;15.14;52.85
81162;BME280;70638;-33.792;151.032;2023-06-14T06:30:28;100680.49;;;15.13;52.92
81162;BME280;70638;-33.792;151.032;2023-06-14T06:32:58;100685.16;;;15.13;52.79
81162;BME280;70638;-33.792;151.032;2023-06-14T06:35:29;100689.98;;;15.12;52.70
81162;BME280;70638;-33.792;151.032;2023-06-14T06:37:59;100685.84;;;15.10;52.33
81162;BME280;70638;-33.792;151.032;2023-06-14T06:40:29;100685.08;;;15.10;52.48
81162;BME280;70638;-33.792;151.032;2023-06-14T06:43:00;100697.67;;;15.10;52.30
81162;BME280;70638;-33.792;151.032;2023-06-14T06:45:30;100706.20;;;15.07;52.54
81162;BME280;70638;-33.792;151.032;2023-06-14T06:48:01;100705.12;;;15.05;50.92
81162;BME280;70638;-33.792;151.032;2023-06-14T06:50:31;100704.94;;;15.06;48.19
81162;BME280;70638;-33.792;151.032;2023-06-14T06:53:02;100709.61;;;15.06;51.40
81162;BME280;70638;-33.792;151.032;2023-06-14T06:55:32;100715.07;;;15.01;51.46
81162;BME280;70638;-33.792;151.032;2023-06-14T06:58:02;100719.91;;;15.04;50.62
81162;BME280;70638;-33.792;151.032;2023-06-14T07:00:33;100724.73;;;15.01;49.56
81162;BME280;70638;-33.792;151.032;2023-06-14T07:03:03;100730.23;;;15.01;48.02
81162;BME280;70638;-33.792;151.032;2023-06-14T07:05:33;100733.45;;;15.00;50.06
81162;BME280;70638;-33.792;151.032;2023-06-14T07:08:04;100736.31;;;14.98;49.86
81162;BME280;70638;-33.792;151.032;2023-06-14T07:10:35;100743.50;;;14.99;48.80
81162;BME280;70638;-33.792;151.032;2023-06-14T07:13:05;100748.51;;;14.97;48.38
81162;BME280;70638;-33.792;151.032;2023-06-14T07:15:35;100750.52;;;14.95;48.59
81162;BME280;70638;-33.792;151.032;2023-06-14T07:18:06;100748.80;;;14.93;48.84
81162;BME280;70638;-33.792;151.032;2023-06-14T07:20:36;100756.53;;;14.95;49.04
81162;BME280;70638;-33.792;151.032;2023-06-14T07:23:06;100757.30;;;14.94;49.21
81162;BME280;70638;-33.792;151.032;2023-06-14T07:25:37;100758.94;;;14.91;48.25
81162;BME280;70638;-33.792;151.032;2023-06-14T07:30:38;100764.45;;;14.89;49.40
81162;BME280;70638;-33.792;151.032;2023-06-14T07:33:08;100775.09;;;14.88;49.32
81162;BME280;70638;-33.792;151.032;2023-06-14T07:35:39;100780.94;;;14.88;50.02
81162;BME280;70638;-33.792;151.032;2023-06-14T07:38:09;100780.26;;;14.87;50.40
81162;BME280;70638;-33.792;151.032;2023-06-14T07:40:39;100788.95;;;14.84;50.58
81162;BME280;70638;-33.792;151.032;2023-06-14T07:43:10;100795.62;;;14.83;50.80
81162;BME280;70638;-33.792;151.032;2023-06-14T07:45:40;100803.02;;;14.84;50.98
81162;BME280;70638;-33.792;151.032;2023-06-14T07:48:10;100807.47;;;14.83;51.19
81162;BME280;70638;-33.792;151.032;2023-06-14T07:50:41;100808.80;;;14.80;51.24
81162;BME280;70638;-33.792;151.032;2023-06-14T07:53:11;100816.05;;;14.77;51.45
81162;BME280;70638;-33.792;151.032;2023-06-14T07:55:42;100818.44;;;14.75;51.20
81162;BME280;70638;-33.792;151.032;2023-06-14T07:58:12;100821.65;;;14.76;51.45
81162;BME280;70638;-33.792;151.032;2023-06-14T08:00:42;100822.55;;;14.74;51.80
81162;BME280;70638;-33.792;151.032;2023-06-14T08:03:19;100823.97;;;14.72;51.73
81162;BME280;70638;-33.792;151.032;2023-06-14T08:05:43;100830.40;;;14.70;52.03
81162;BME280;70638;-33.792;151.032;2023-06-14T08:08:13;100832.58;;;14.69;52.08
81162;BME280;70638;-33.792;151.032;2023-06-14T08:10:44;100835.37;;;14.69;51.96
81162;BME280;70638;-33.792;151.032;2023-06-14T08:13:15;100839.41;;;14.66;51.98
81162;BME280;70638;-33.792;151.032;2023-06-14T08:15:45;100844.88;;;14.63;51.97
81162;BME280;70638;-33.792;151.032;2023-06-14T08:18:15;100844.09;;;14.61;51.52
81162;BME280;70638;-33.792;151.032;2023-06-14T08:20:49;100845.53;;;14.61;51.25
81162;BME280;70638;-33.792;151.032;2023-06-14T08:23:16;100845.61;;;14.60;51.09
81162;BME280;70638;-33.792;151.032;2023-06-14T08:25:47;100848.23;;;14.60;51.57
81162;BME280;70638;-33.792;151.032;2023-06-14T08:28:17;100852.95;;;14.57;51.23
81162;BME280;70638;-33.792;151.032;2023-06-14T08:30:47;100853.45;;;14.58;51.94
81162;BME280;70638;-33.792;151.032;2023-06-14T08:33:18;100860.56;;;14.57;51.78
81162;BME280;70638;-33.792;151.032;2023-06-14T08:35:48;100872.72;;;14.55;51.52
81162;BME280;70638;-33.792;151.032;2023-06-14T08:38:25;100876.47;;;14.52;51.20
81162;BME280;70638;-33.792;151.032;2023-06-14T08:40:51;100882.51;;;14.52;51.38
81162;BME280;70638;-33.792;151.032;2023-06-14T08:43:19;100891.28;;;14.51;51.74
81162;BME280;70638;-33.792;151.032;2023-06-14T08:45:58;100898.95;;;14.51;52.11
81162;BME280;70638;-33.792;151.032;2023-06-14T08:48:21;100907.44;;;14.52;52.27
81162;BME280;70638;-33.792;151.032;2023-06-14T08:50:50;100911.55;;;14.51;52.37
81162;BME280;70638;-33.792;151.032;2023-06-14T08:53:21;100919.37;;;14.51;52.53
81162;BME280;70638;-33.792;151.032;2023-06-14T08:55:51;100922.80;;;14.49;52.20
81162;BME280;70638;-33.792;151.032;2023-06-14T08:58:21;100926.41;;;14.48;52.74
81162;BME280;70638;-33.792;151.032;2023-06-14T09:00:52;100926.46;;;14.44;52.78
81162;BME280;70638;-33.792;151.032;2023-06-14T09:03:22;100932.61;;;14.43;52.95
81162;BME280;70638;-33.792;151.032;2023-06-14T09:05:53;100926.77;;;14.42;53.14
81162;BME280;70638;-33.792;151.032;2023-06-14T09:08:23;100931.98;;;14.39;53.13
81162;BME280;70638;-33.792;151.032;2023-06-14T09:10:54;100934.23;;;14.37;53.42
81162;BME280;70638;-33.792;151.032;2023-06-14T09:13:24;100932.80;;;14.36;53.31
81162;BME280;70638;-33.792;151.032;2023-06-14T09:15:55;100935.84;;;14.36;53.56
81162;BME280;70638;-33.792;151.032;2023-06-14T09:18:36;100935.72;;;14.33;53.57
81162;BME280;70638;-33.792;151.032;2023-06-14T09:20:55;100939.21;;;14.04;49.78
81162;BME280;70638;-33.792;151.032;2023-06-14T09:23:26;100938.12;;;14.18;53.22
81162;BME280;70638;-33.792;151.032;2023-06-14T09:25:56;100934.05;;;14.22;53.22
81162;BME280;70638;-33.792;151.032;2023-06-14T09:28:29;100930.47;;;14.22;52.98
81162;BME280;70638;-33.792;151.032;2023-06-14T09:30:57;100927.45;;;14.22;52.75
81162;BME280;70638;-33.792;151.032;2023-06-14T09:33:27;100928.95;;;14.20;52.82
81162;BME280;70638;-33.792;151.032;2023-06-14T09:35:57;100933.91;;;14.19;52.98
81162;BME280;70638;-33.792;151.032;2023-06-14T09:38:28;100945.61;;;14.19;53.06
81162;BME280;70638;-33.792;151.032;2023-06-14T09:40:59;100950.73;;;14.18;53.16
81162;BME280;70638;-33.792;151.032;2023-06-14T09:43:29;100951.16;;;14.17;53.30
81162;BME280;70638;-33.792;151.032;2023-06-14T09:46:00;100951.71;;;14.16;53.39
81162;BME280;70638;-33.792;151.032;2023-06-14T09:48:30;100956.70;;;14.16;53.43
81162;BME280;70638;-33.792;151.032;2023-06-14T09:51:02;100958.78;;;14.13;53.33
81162;BME280;70638;-33.792;151.032;2023-06-14T09:53:33;100960.34;;;14.11;53.63
81162;BME280;70638;-33.792;151.032;2023-06-14T09:56:01;100964.61;;;14.13;53.68
81162;BME280;70638;-33.792;151.032;2023-06-14T09:58:37;100968.33;;;14.12;53.75
81162;BME280;70638;-33.792;151.032;2023-06-14T10:01:03;100965.00;;;14.11;53.83
81162;BME280;70638;-33.792;151.032;2023-06-14T10:03:34;100963.52;;;14.07;53.89
81162;BME280;70638;-33.792;151.032;2023-06-14T10:06:07;100962.62;;;14.09;53.94
81162;BME280;70638;-33.792;151.032;2023-06-14T10:08:36;100958.66;;;14.05;54.07
81162;BME280;70638;-33.792;151.032;2023-06-14T10:11:05;100959.25;;;14.04;54.04
81162;BME280;70638;-33.792;151.032;2023-06-14T10:13:35;100960.91;;;14.03;53.96
81162;BME280;70638;-33.792;151.032;2023-06-14T10:16:17;100963.44;;;14.01;54.10
81162;BME280;70638;-33.792;151.032;2023-06-14T10:18:49;100967.12;;;13.99;54.28
81162;BME280;70638;-33.792;151.032;2023-06-14T10:21:13;100976.77;;;13.88;51.24
81162;BME280;70638;-33.792;151.032;2023-06-14T10:23:41;100982.09;;;13.52;47.96
81162;BME280;70638;-33.792;151.032;2023-06-14T10:26:12;100979.21;;;13.24;48.00
81162;BME280;70638;-33.792;151.032;2023-06-14T10:28:40;100978.94;;;13.13;47.68
81162;BME280;70638;-33.792;151.032;2023-06-14T10:31:11;100981.39;;;13.05;47.33
81162;BME280;70638;-33.792;151.032;2023-06-14T10:33:48;100984.62;;;13.24;48.70
81162;BME280;70638;-33.792;151.032;2023-06-14T10:36:28;100984.95;;;13.45;49.07
81162;BME280;70638;-33.792;151.032;2023-06-14T10:38:42;100985.63;;;13.52;49.07
81162;BME280;70638;-33.792;151.032;2023-06-14T10:41:11;100987.96;;;13.59;49.32
81162;BME280;70638;-33.792;151.032;2023-06-14T10:43:42;100982.94;;;13.58;49.43
81162;BME280;70638;-33.792;151.032;2023-06-14T10:46:14;100985.80;;;13.56;49.97
81162;BME280;70638;-33.792;151.032;2023-06-14T10:48:43;100988.12;;;13.59;50.15
81162;BME280;70638;-33.792;151.032;2023-06-14T10:51:19;100994.89;;;13.60;50.46
81162;BME280;70638;-33.792;151.032;2023-06-14T10:53:44;100999.62;;;13.60;50.71
81162;BME280;70638;-33.792;151.032;2023-06-14T10:56:29;101003.42;;;13.59;50.98
81162;BME280;70638;-33.792;151.032;2023-06-14T10:58:45;101005.97;;;13.60;51.15
81162;BME280;70638;-33.792;151.032;2023-06-14T11:01:15;101007.31;;;13.60;51.41
81162;BME280;70638;-33.792;151.032;2023-06-14T11:03:54;101014.16;;;13.59;51.55
81162;BME280;70638;-33.792;151.032;2023-06-14T11:06:16;101014.62;;;13.56;51.77
81162;BME280;70638;-33.792;151.032;2023-06-14T11:09:02;101014.49;;;13.55;51.94
81162;BME280;70638;-33.792;151.032;2023-06-14T11:11:17;101026.57;;;13.54;52.19
81162;BME280;70638;-33.792;151.032;2023-06-14T11:13:47;101025.30;;;13.53;52.29
81162;BME280;70638;-33.792;151.032;2023-06-14T11:16:18;101026.91;;;13.54;52.41
81162;BME280;70638;-33.792;151.032;2023-06-14T11:18:49;101035.02;;;13.53;52.56
81162;BME280;70638;-33.792;151.032;2023-06-14T11:21:19;101035.98;;;13.52;52.71
81162;BME280;70638;-33.792;151.032;2023-06-14T11:23:53;101036.11;;;13.49;52.91
81162;BME280;70638;-33.792;151.032;2023-06-14T11:26:31;101037.84;;;13.51;52.94
81162;BME280;70638;-33.792;151.032;2023-06-14T11:28:55;101039.57;;;13.49;53.04
81162;BME280;70638;-33.792;151.032;2023-06-14T11:31:21;101043.80;;;13.49;53.05
81162;BME280;70638;-33.792;151.032;2023-06-14T11:33:53;101045.61;;;13.47;53.21
81162;BME280;70638;-33.792;151.032;2023-06-14T11:36:22;101044.30;;;13.48;53.23
81162;BME280;70638;-33.792;151.032;2023-06-14T11:39:00;101042.09;;;13.43;53.47
81162;BME280;70638;-33.792;151.032;2023-06-14T11:41:24;101034.45;;;13.42;53.54
81162;BME280;70638;-33.792;151.032;2023-06-14T11:43:56;101032.66;;;13.40;53.62
81162;BME280;70638;-33.792;151.032;2023-06-14T11:46:26;101031.90;;;13.40;53.69
81162;BME280;70638;-33.792;151.032;2023-06-14T11:48:54;101029.78;;;13.39;53.77
81162;BME280;70638;-33.792;151.032;2023-06-14T11:51:25;101029.16;;;13.38;53.79
81162;BME280;70638;-33.792;151.032;2023-06-14T11:53:55;101033.88;;;13.37;53.93
81162;BME280;70638;-33.792;151.032;2023-06-14T11:56:25;101025.77;;;13.37;53.89
81162;BME280;70638;-33.792;151.032;2023-06-14T11:58:56;101025.00;;;13.33;54.10
81162;BME280;70638;-33.792;151.032;2023-06-14T12:01:29;101027.71;;;13.33;54.10
81162;BME280;70638;-33.792;151.032;2023-06-14T12:03:59;101026.01;;;13.31;54.12
81162;BME280;70638;-33.792;151.032;2023-06-14T12:06:29;101021.98;;;13.29;54.32
81162;BME280;70638;-33.792;151.032;2023-06-14T12:08:58;101023.29;;;13.26;54.42
81162;BME280;70638;-33.792;151.032;2023-06-14T12:11:35;101019.12;;;13.26;54.39
81162;BME280;70638;-33.792;151.032;2023-06-14T12:13:59;101018.75;;;13.25;54.44
81162;BME280;70638;-33.792;151.032;2023-06-14T12:16:33;101008.01;;;13.23;54.46
81162;BME280;70638;-33.792;151.032;2023-06-14T12:19:14;101010.64;;;13.25;54.50
81162;BME280;70638;-33.792;151.032;2023-06-14T12:21:32;101008.94;;;13.23;54.52
81162;BME280;70638;-33.792;151.032;2023-06-14T12:24:04;101009.31;;;13.22;54.59
81162;BME280;70638;-33.792;151.032;2023-06-14T12:26:31;101006.95;;;13.21;54.56
81162;BME280;70638;-33.792;151.032;2023-06-14T12:29:05;101008.59;;;13.20;54.65
81162;BME280;70638;-33.792;151.032;2023-06-14T12:31:32;101013.19;;;13.20;54.68
81162;BME280;70638;-33.792;151.032;2023-06-14T12:34:03;101012.05;;;13.19;54.79
81162;BME280;70638;-33.792;151.032;2023-06-14T12:36:33;101015.72;;;13.17;54.79
81162;BME280;70638;-33.792;151.032;2023-06-14T12:39:04;101022.48;;;13.17;54.88
81162;BME280;70638;-33.792;151.032;2023-06-14T12:41:34;101026.98;;;13.18;54.84